Latest Coastal Weather Observations for Ballina

IDN60701

Issued at 7:02 pm EST Thursday 4 June 2020 (issued every 10 minutes, with the page automatically refreshed every 10 minutes)

About coastal observations | Map of coastal stations | Coastal observations for NSW | Marine services | Other Formats
Station Details ID: 058198 Name: BALLINA AIRPORT AWS Lat: -28.84 Lon: 153.56 Height: 1.3 m
Data from the previous 72 hours. | See also: Recent months at Ballina
Date/Time
EST
Wind Sea
Height
m
Swell Vis
km
Cloud Weather Temp
°C
Press
hPa
Rain since
9am
mm
Dir  Spd
kts
Gust
kts
Height
m
Period
s
Dir
04/06:30pm SW 6 9 - - - - 10 Cloudy - 15.6 1028.6 0.0
04/06:00pm SW 9 13 - - - - 10 Cloudy - 16.2 1028.3 0.0
04/05:30pm SSW 12 18 - - - - 10 - - 16.5 1027.9 0.0
04/05:00pm SW 8 13 - - - - 10 - - 16.3 1027.6 0.0
04/04:30pm SSW 13 20 - - - - 10 Partly cloudy - 16.4 1027.7 0.0
04/04:00pm S 14 22 - - - - 7 Partly cloudy - 15.9 1027.6 0.0
04/03:30pm SSW 12 21 - - - - 10 - - 17.3 1027.4 0.0
04/03:00pm SSW 14 21 - - - - 10 Cloudy - 17.6 1027.3 0.0
04/02:30pm S 15 21 - - - - 10 Partly cloudy - 17.9 1027.2 0.0
04/02:00pm S 16 26 - - - - 10 - - 18.1 1027.4 0.0
04/01:30pm SSW 16 25 - - - - 10 Partly cloudy - 17.8 1027.5 0.0
04/01:09pm SSW 15 26 - - - - 10 Partly cloudy - 17.9 1027.7 0.0
04/01:00pm SSW 17 23 - - - - 10 Partly cloudy - 18.3 1027.7 0.0
04/12:50pm SSW 16 29 - - - - 10 Partly cloudy - 17.9 1027.8 0.0
04/12:30pm SSW 13 19 - - - - 10 Partly cloudy - 17.4 1028.0 0.0
04/12:09pm SSW 15 25 - - - - 10 Partly cloudy - 17.4 1028.3 0.0
04/12:00pm SSW 15 24 - - - - 10 Cloudy - 17.9 1028.4 0.0
04/11:30am SW 11 19 - - - - 10 Partly cloudy - 16.0 1028.8 0.0
04/11:00am SSW 12 17 - - - - 10 Partly cloudy - 15.7 1029.2 0.0
04/10:30am SSW 14 22 - - - - 10 Partly cloudy - 16.3 1029.1 0.0
04/10:00am SSW 13 22 - - - - 10 Partly cloudy - 15.8 1028.9 0.0
04/09:30am SW 10 16 - - - - 10 Partly cloudy - 15.6 1029.0 0.0
04/09:00am SW 10 13 - - - - 10 Cloudy - 14.5 1028.8 0.0
04/08:30am WSW 10 15 - - - - 10 Partly cloudy - 14.2 1028.3 0.0
04/08:00am SW 10 13 - - - - 10 Partly cloudy - 14.0 1028.0 0.0
04/07:30am WSW 9 11 - - - - 10 Partly cloudy - 12.9 1027.6 0.0
04/07:00am SW 9 14 - - - - 10 Partly cloudy - 13.1 1027.4 0.0
04/06:30am SW 10 13 - - - - 10 Partly cloudy - 13.1 1027.1 0.0
04/06:00am WSW 11 13 - - - - 10 Cloudy - 13.1 1026.8 0.0
04/05:30am WSW 11 17 - - - - 10 Partly cloudy - 13.8 1026.2 0.0
04/05:00am SW 9 12 - - - - 10 Partly cloudy - 14.0 1025.9 0.0
04/04:30am SW 10 16 - - - - 10 Partly cloudy - 13.9 1025.8 0.0
04/04:00am WSW 8 11 - - - - 10 Partly cloudy - 13.7 1025.5 0.0
04/03:30am SW 11 15 - - - - 10 Cloudy - 14.3 1025.6 0.0
04/03:00am SW 9 13 - - - - 10 Mostly cloudy - 14.3 1025.6 0.0
04/02:30am SW 11 18 - - - - 10 Partly cloudy - 13.9 1025.7 0.0
04/02:00am SW 10 13 - - - - 10 Partly cloudy - 14.0 1025.8 0.0
04/01:30am WSW 8 13 - - - - 10 Partly cloudy - 13.9 1025.9 0.0
04/01:00am SW 9 13 - - - - 10 - - 14.3 1025.7 0.0
04/12:30am SW 9 12 - - - - 10 - - 13.6 1025.6 0.0
04/12:00am SW 7 9 - - - - 10 - - 13.6 1025.7 0.0
 
Date/Time
EST
Wind Sea
Height
m
Swell Vis
km
Cloud Weather Temp
°C
Press
hPa
Rain since
9am
mm
Dir  Spd
kts
Gust
kts
Height
m
Period
s
Dir
03/11:30pm SW 7 10 - - - - 10 - - 13.6 1025.7 0.0
03/11:00pm SW 10 13 - - - - 10 - - 14.0 1025.7 0.0
03/10:30pm WSW 9 12 - - - - 10 - - 14.3 1025.7 0.0
03/10:00pm WSW 8 10 - - - - 10 - - 13.6 1025.5 0.0
03/09:30pm WSW 7 9 - - - - 10 - - 13.0 1025.4 0.0
03/09:00pm WSW 9 12 - - - - 10 Mostly clear - 15.1 1025.1 0.0
03/08:30pm S 15 22 - - - - 10 - - 18.5 1024.8 0.0
03/08:00pm S 12 17 - - - - 10 - - 18.1 1024.5 0.0
03/07:30pm S 11 19 - - - - 10 - - 17.4 1024.3 0.0
03/07:00pm S 10 14 - - - - 10 Partly cloudy - 17.5 1023.9 0.0
03/06:30pm S 11 18 - - - - 10 Partly cloudy - 17.7 1023.4 0.0
03/06:00pm S 11 17 - - - - 10 - - 17.3 1022.7 0.0
03/05:30pm S 10 15 - - - - 10 - - 17.0 1022.2 0.0
03/05:00pm S 12 16 - - - - 10 - - 17.4 1021.8 0.0
03/04:30pm S 10 16 - - - - 10 - - 17.6 1021.5 0.0
03/04:00pm S 10 13 - - - - 10 - - 17.9 1021.3 0.0
03/03:30pm S 11 16 - - - - 10 - - 18.1 1021.0 0.0
03/03:00pm S 12 17 - - - - 10 - - 18.2 1020.7 0.0
03/02:30pm S 10 15 - - - - 10 - - 18.6 1020.4 0.0
03/02:00pm S 7 11 - - - - 10 - - 18.8 1020.0 0.0
03/01:30pm SSW 7 10 - - - - 10 - - 18.7 1019.9 0.0
03/01:00pm SW 7 12 - - - - 10 - - 18.6 1020.1 0.0
03/12:30pm WSW 6 9 - - - - 10 - - 18.4 1020.5 0.0
03/12:00pm SW 7 10 - - - - 10 - - 18.0 1020.9 0.0
03/11:30am SW 7 11 - - - - 10 - - 17.7 1021.1 0.0
03/11:00am WSW 7 10 - - - - 10 - - 17.6 1021.4 0.0
03/10:30am WSW 7 10 - - - - 10 - - 16.7 1021.7 0.0
03/10:00am WSW 10 12 - - - - 10 - - 16.1 1021.8 0.0
03/09:30am W 9 12 - - - - 10 - - 15.7 1021.8 0.0
03/09:00am WSW 9 12 - - - - 10 - - 14.8 1021.4 0.0
03/08:30am WSW 6 9 - - - - 10 - - 13.8 1021.2 0.0
03/08:00am WSW 7 9 - - - - 10 - - 12.8 1021.1 0.0
03/07:30am W 6 9 - - - - 10 - - 10.9 1020.7 0.0
03/07:00am WNW 4 6 - - - - 10 - - 8.0 1020.7 0.0
03/06:30am W 5 5 - - - - 10 - - 8.7 1020.2 0.0
03/06:00am W 3 5 - - - - 10 - - 8.7 1019.8 0.0
03/05:30am WSW 7 8 - - - - 10 - - 9.1 1019.5 0.0
03/05:00am WSW 9 10 - - - - 10 - - 8.4 1019.0 0.0
03/04:30am W 5 7 - - - - 10 - - 9.3 1019.0 0.0
03/04:00am WNW 6 9 - - - - 10 - - 10.0 1018.8 0.0
03/03:30am WNW 9 13 - - - - 10 - - 10.9 1018.6 0.0
03/03:00am W 11 15 - - - - 10 - - 11.1 1018.5 0.0
03/02:30am WNW 10 15 - - - - 10 - - 11.3 1018.6 0.0
03/02:00am W 11 15 - - - - 10 - - 11.3 1018.4 0.0
03/01:30am W 11 15 - - - - 10 - - 11.0 1018.3 0.0
03/01:00am W 12 16 - - - - 10 - - 11.5 1018.8 0.0
03/12:30am WNW 11 16 - - - - 10 - - 12.2 1018.9 0.0
03/12:00am W 11 18 - - - - 10 - - 12.4 1019.1 0.0
 
Date/Time
EST
Wind Sea
Height
m
Swell Vis
km
Cloud Weather Temp
°C
Press
hPa
Rain since
9am
mm
Dir  Spd
kts
Gust
kts
Height
m
Period
s
Dir
02/11:30pm W 15 21 - - - - 10 - - 12.5 1019.0 0.0
02/11:00pm W 15 22 - - - - 10 - - 12.6 1019.1 0.0
02/10:30pm W 15 20 - - - - 10 - - 12.9 1019.0 0.0
02/10:00pm WNW 13 17 - - - - 10 - - 12.9 1019.1 0.0
02/09:30pm W 14 21 - - - - 10 - - 12.9 1019.1 0.0
02/09:00pm W 12 15 - - - - 10 - - 12.7 1018.9 0.0
02/08:30pm W 11 15 - - - - 10 - - 12.1 1019.0 0.0
02/08:00pm W 11 15 - - - - 10 - - 12.3 1018.8 0.0
02/07:30pm W 9 13 - - - - 10 - - 12.4 1018.5 0.0
02/07:00pm WNW 10 13 - - - - 10 - - 13.4 1017.8 0.0
02/06:30pm WNW 11 15 - - - - 10 - - 14.1 1017.4 0.0
02/06:00pm WNW 8 11 - - - - 10 - - 13.9 1016.9 0.0
02/05:30pm WNW 11 15 - - - - 10 - - 15.2 1016.4 0.0
02/05:00pm W 9 13 - - - - 10 - - 14.9 1016.1 0.0
02/04:30pm WNW 10 13 - - - - 10 - - 16.5 1015.8 0.0
02/04:00pm W 13 17 - - - - 10 - - 17.2 1015.5 0.0
02/03:30pm W 12 18 - - - - 10 - - 18.0 1015.2 0.0
02/03:00pm WNW 16 21 - - - - 10 - - 18.3 1015.0 0.0
02/02:30pm W 13 19 - - - - 10 - - 18.5 1015.0 0.0
02/02:00pm WNW 13 19 - - - - 10 - - 18.3 1015.0 0.0
02/01:30pm W 16 22 - - - - 10 - - 18.0 1015.3 0.0
02/01:00pm W 16 21 - - - - 10 - - 18.0 1015.5 0.0
02/12:30pm W 17 25 - - - - 10 - - 17.7 1016.0 0.0
02/12:00pm W 14 22 - - - - 10 - - 17.3 1015.7 0.0
02/11:30am W 17 24 - - - - 10 - - 16.8 1016.6 0.0
02/11:00am W 17 23 - - - - 10 - - 16.2 1017.0 0.0
02/10:30am WNW 14 22 - - - - 10 - - 16.0 1017.5 0.0
02/10:00am W 13 17 - - - - 10 - - 15.6 1017.7 0.0
02/09:30am W 14 19 - - - - 10 - - 15.1 1017.6 0.0
02/09:00am W 10 15 - - - - 10 - - 14.8 1017.7 3.6
02/08:30am W 13 19 - - - - 10 - - 14.2 1017.3 3.6
02/08:00am W 8 14 - - - - 10 - - 14.0 1017.2 3.6
02/07:30am W 9 12 - - - - 10 - - 13.5 1017.3 3.6
02/07:00am W 12 17 - - - - 10 - - 12.9 1016.6 3.6
02/06:30am WNW 7 12 - - - - 10 - - 13.3 1015.6 3.6
02/06:00am W 11 15 - - - - 10 - - 13.0 1015.2 3.6
02/05:30am NW 2 9 - - - - 10 - - 10.9 1015.1 3.6
02/05:00am NW 1 5 - - - - 10 - - 11.9 1014.7 3.6
02/04:30am CALM 0 0 - - - - 10 - - 12.0 1014.6 3.6
02/04:00am NW 4 5 - - - - 10 - - 12.7 1014.2 3.6
02/03:30am WNW 6 8 - - - - 10 - - 13.1 1014.0 3.6
02/03:00am NW 6 8 - - - - 10 - - 14.7 1013.6 3.6
02/02:30am WNW 8 9 - - - - 10 - - 15.1 1013.6 3.6
02/02:00am NW 7 9 - - - - 10 - - 15.1 1013.7 3.6
02/01:30am NW 7 9 - - - - 10 - - 15.6 1013.5 3.6
02/01:00am NNW 4 5 - - - - 10 - - 15.3 1013.3 3.6
02/12:30am NNW 5 6 - - - - 10 - - 15.3 1013.2 3.6
02/12:00am NW 5 6 - - - - 10 - - 15.5 1013.4 3.6
 
Date/Time
EST
Wind Sea
Height
m
Swell Vis
km
Cloud Weather Temp
°C
Press
hPa
Rain since
9am
mm
Dir  Spd
kts
Gust
kts
Height
m
Period
s
Dir
01/11:30pm CALM 0 3 - - - - 10 - - 15.9 1013.4 3.6
01/11:00pm N 6 7 - - - - 10 - - 16.5 1013.3 3.6
01/10:30pm N 9 12 - - - - 10 Partly cloudy - 17.1 1013.3 3.6
01/10:00pm N 8 10 - - - - 10 Partly cloudy - 16.5 1013.5 3.6
01/09:30pm N 7 9 - - - - 10 Partly cloudy - 16.6 1013.9 3.6
01/09:00pm N 8 10 - - - - 10 Mostly cloudy Recent precip. 16.4 1013.9 3.6
01/08:30pm N 11 15 - - - - 10 Partly cloudy - 16.5 1013.9 3.6
01/08:00pm N 10 12 - - - - 10 Partly cloudy - 17.0 1014.3 3.4
01/07:30pm NNE 4 7 - - - - 10 - - 16.0 1014.0 3.0

Other formats

Comma delimited format used in spreadsheet applications
http://www.bom.gov.au/fwo/IDN60701/IDN60701.94596.axf

JavaScript Object Notation format (JSON) in row-major order
http://www.bom.gov.au/fwo/IDN60701/IDN60701.94596.json

Data quality

Most of these data are generated automatically and are frequently updated. Quality checks on data are not normally performed. It is possible for incorrect values to appear. Refer to information at About Latest Weather Observations and please check the disclaimer before using these data.